sensor_id;sensor_type;location;lat;lon;timestamp;temperature;humidity
1391;DHT22;690;51.454;7.194;2022-07-10T19:15:58;21.10;1.00
1391;DHT22;690;51.454;7.194;2022-07-10T19:18:26;21.20;1.00
1391;DHT22;690;51.454;7.194;2022-07-10T19:20:53;21.30;1.00
1391;DHT22;690;51.454;7.194;2022-07-10T19:23:20;21.30;1.00
1391;DHT22;690;51.454;7.194;2022-07-10T19:25:47;21.30;1.00
1391;DHT22;690;51.454;7.194;2022-07-10T19:28:16;21.30;99.90
1391;DHT22;690;51.454;7.194;2022-07-10T19:30:44;21.30;99.90
1391;DHT22;690;51.454;7.194;2022-07-10T19:33:12;21.30;99.90
1391;DHT22;690;51.454;7.194;2022-07-10T19:35:39;21.30;99.90
1391;DHT22;690;51.454;7.194;2022-07-10T19:38:06;21.30;99.90
1391;DHT22;690;51.454;7.194;2022-07-10T19:40:33;21.30;99.90
1391;DHT22;690;51.454;7.194;2022-07-10T19:43:01;21.30;99.90
1391;DHT22;690;51.454;7.194;2022-07-10T19:45:28;21.30;99.90
1391;DHT22;690;51.454;7.194;2022-07-10T19:47:55;21.30;99.90
1391;DHT22;690;51.454;7.194;2022-07-10T19:50:24;21.30;99.90
1391;DHT22;690;51.454;7.194;2022-07-10T19:52:51;21.30;99.90
1391;DHT22;690;51.454;7.194;2022-07-10T19:55:19;21.30;99.90
1391;DHT22;690;51.454;7.194;2022-07-10T19:57:46;21.30;1.00
1391;DHT22;690;51.454;7.194;2022-07-10T20:00:14;21.30;1.00
1391;DHT22;690;51.454;7.194;2022-07-10T20:02:41;21.20;1.00
1391;DHT22;690;51.454;7.194;2022-07-10T20:05:09;21.20;1.00
1391;DHT22;690;51.454;7.194;2022-07-10T20:07:38;21.10;1.00
1391;DHT22;690;51.454;7.194;2022-07-10T20:10:06;21.10;1.00
1391;DHT22;690;51.454;7.194;2022-07-10T20:12:33;21.10;1.00
1391;DHT22;690;51.454;7.194;2022-07-10T20:15:01;21.10;1.00
1391;DHT22;690;51.454;7.194;2022-07-10T20:17:28;21.00;1.00
1391;DHT22;690;51.454;7.194;2022-07-10T20:19:56;21.00;1.00
1391;DHT22;690;51.454;7.194;2022-07-10T20:22:23;21.10;1.00
1391;DHT22;690;51.454;7.194;2022-07-10T20:24:52;21.00;1.00
1391;DHT22;690;51.454;7.194;2022-07-10T20:27:19;21.00;1.00
1391;DHT22;690;51.454;7.194;2022-07-10T20:29:46;21.00;1.00
1391;DHT22;690;51.454;7.194;2022-07-10T20:32:13;21.00;1.00
1391;DHT22;690;51.454;7.194;2022-07-10T20:34:40;21.00;1.00
1391;DHT22;690;51.454;7.194;2022-07-10T20:37:07;20.90;1.00
1391;DHT22;690;51.454;7.194;2022-07-10T20:39:53;20.90;1.00
1391;DHT22;690;51.454;7.194;2022-07-10T20:42:22;20.90;1.00
1391;DHT22;690;51.454;7.194;2022-07-10T20:44:49;20.90;1.00
1391;DHT22;690;51.454;7.194;2022-07-10T20:47:16;20.90;1.00
1391;DHT22;690;51.454;7.194;2022-07-10T20:49:43;21.00;1.00
1391;DHT22;690;51.454;7.194;2022-07-10T20:52:10;21.00;1.00
1391;DHT22;690;51.454;7.194;2022-07-10T20:54:37;20.90;1.00
1391;DHT22;690;51.454;7.194;2022-07-10T20:57:06;20.80;1.00
1391;DHT22;690;51.454;7.194;2022-07-10T20:59:33;20.80;1.00
1391;DHT22;690;51.454;7.194;2022-07-10T21:02:00;20.80;1.00
1391;DHT22;690;51.454;7.194;2022-07-10T21:04:27;20.80;1.00
1391;DHT22;690;51.454;7.194;2022-07-10T21:06:54;20.80;1.00
1391;DHT22;690;51.454;7.194;2022-07-10T21:09:22;20.70;1.00
1391;DHT22;690;51.454;7.194;2022-07-10T21:11:48;20.70;1.00
1391;DHT22;690;51.454;7.194;2022-07-10T21:14:17;20.70;1.00
1391;DHT22;690;51.454;7.194;2022-07-10T21:16:44;20.70;1.00
1391;DHT22;690;51.454;7.194;2022-07-10T21:19:11;20.70;1.00
1391;DHT22;690;51.454;7.194;2022-07-10T21:21:39;20.70;1.00
1391;DHT22;690;51.454;7.194;2022-07-10T21:24:06;20.70;1.00
1391;DHT22;690;51.454;7.194;2022-07-10T21:26:34;20.70;1.00
1391;DHT22;690;51.454;7.194;2022-07-10T21:29:01;20.70;1.00
1391;DHT22;690;51.454;7.194;2022-07-10T21:31:30;20.70;1.00
1391;DHT22;690;51.454;7.194;2022-07-10T21:33:57;20.70;1.00
1391;DHT22;690;51.454;7.194;2022-07-10T21:36:24;20.70;1.00
1391;DHT22;690;51.454;7.194;2022-07-10T21:38:51;20.70;1.00
1391;DHT22;690;51.454;7.194;2022-07-10T21:41:18;20.60;1.00
1391;DHT22;690;51.454;7.194;2022-07-10T21:43:45;20.70;1.00
1391;DHT22;690;51.454;7.194;2022-07-10T21:46:12;20.70;1.00
1391;DHT22;690;51.454;7.194;2022-07-10T21:48:40;20.80;1.00
1391;DHT22;690;51.454;7.194;2022-07-10T21:51:07;20.70;1.00
1391;DHT22;690;51.454;7.194;2022-07-10T21:53:34;20.80;1.00
1391;DHT22;690;51.454;7.194;2022-07-10T21:56:02;20.90;1.00
1391;DHT22;690;51.454;7.194;2022-07-10T21:58:28;20.90;1.00
1391;DHT22;690;51.454;7.194;2022-07-10T22:00:55;21.00;1.00
1391;DHT22;690;51.454;7.194;2022-07-10T22:03:23;21.00;1.00
1391;DHT22;690;51.454;7.194;2022-07-10T22:05:52;21.00;1.00
1391;DHT22;690;51.454;7.194;2022-07-10T22:08:19;21.10;1.00
1391;DHT22;690;51.454;7.194;2022-07-10T22:10:46;21.10;1.00
1391;DHT22;690;51.454;7.194;2022-07-10T22:13:13;21.20;1.00
1391;DHT22;690;51.454;7.194;2022-07-10T22:15:40;21.20;1.00
1391;DHT22;690;51.454;7.194;2022-07-10T22:18:08;21.20;1.00
1391;DHT22;690;51.454;7.194;2022-07-10T22:20:35;21.20;1.00
1391;DHT22;690;51.454;7.194;2022-07-10T22:23:03;21.20;1.00
1391;DHT22;690;51.454;7.194;2022-07-10T22:25:31;21.20;1.00
1391;DHT22;690;51.454;7.194;2022-07-10T22:27:58;21.30;1.00
1391;DHT22;690;51.454;7.194;2022-07-10T22:30:25;21.20;1.00
1391;DHT22;690;51.454;7.194;2022-07-10T22:33:09;21.20;1.00
1391;DHT22;690;51.454;7.194;2022-07-10T22:35:36;21.10;1.00
1391;DHT22;690;51.454;7.194;2022-07-10T22:38:05;21.20;1.00
1391;DHT22;690;51.454;7.194;2022-07-10T22:40:32;21.20;1.00
1391;DHT22;690;51.454;7.194;2022-07-10T22:42:59;21.20;1.00
1391;DHT22;690;51.454;7.194;2022-07-10T22:45:26;21.20;1.00
1391;DHT22;690;51.454;7.194;2022-07-10T22:47:54;21.10;1.00
1391;DHT22;690;51.454;7.194;2022-07-10T22:50:21;21.10;1.00
1391;DHT22;690;51.454;7.194;2022-07-10T22:52:48;21.00;1.00
1391;DHT22;690;51.454;7.194;2022-07-10T22:55:16;20.90;1.00
1391;DHT22;690;51.454;7.194;2022-07-10T22:57:43;21.00;1.00
1391;DHT22;690;51.454;7.194;2022-07-10T23:00:11;21.00;1.00
1391;DHT22;690;51.454;7.194;2022-07-10T23:02:39;20.90;1.00
1391;DHT22;690;51.454;7.194;2022-07-10T23:05:07;21.00;1.00
1391;DHT22;690;51.454;7.194;2022-07-10T23:07:34;21.00;1.00
1391;DHT22;690;51.454;7.194;2022-07-10T23:10:02;21.00;1.00
1391;DHT22;690;51.454;7.194;2022-07-10T23:12:33;21.00;1.00
1391;DHT22;690;51.454;7.194;2022-07-10T23:15:01;21.00;1.00
1391;DHT22;690;51.454;7.194;2022-07-10T23:17:35;20.90;1.00
1391;DHT22;690;51.454;7.194;2022-07-10T23:20:03;20.80;1.00
1391;DHT22;690;51.454;7.194;2022-07-10T23:22:30;20.70;1.00
1391;DHT22;690;51.454;7.194;2022-07-10T23:24:58;20.50;1.00
1391;DHT22;690;51.454;7.194;2022-07-10T23:27:25;20.50;1.00
1391;DHT22;690;51.454;7.194;2022-07-10T23:29:54;20.40;1.00
1391;DHT22;690;51.454;7.194;2022-07-10T23:32:21;20.30;1.00
1391;DHT22;690;51.454;7.194;2022-07-10T23:34:49;20.20;1.00
1391;DHT22;690;51.454;7.194;2022-07-10T23:37:16;20.20;1.00
1391;DHT22;690;51.454;7.194;2022-07-10T23:39:44;20.20;1.00
1391;DHT22;690;51.454;7.194;2022-07-10T23:42:11;20.10;1.00
1391;DHT22;690;51.454;7.194;2022-07-10T23:44:39;20.10;1.00
1391;DHT22;690;51.454;7.194;2022-07-10T23:47:08;20.00;1.00
1391;DHT22;690;51.454;7.194;2022-07-10T23:49:35;19.90;1.00
1391;DHT22;690;51.454;7.194;2022-07-10T23:52:20;19.90;1.00
1391;DHT22;690;51.454;7.194;2022-07-10T23:54:48;19.80;1.00
1391;DHT22;690;51.454;7.194;2022-07-10T23:57:17;19.80;1.00
1391;DHT22;690;51.454;7.194;2022-07-10T23:59:44;19.80;20.10
